Date,TemperatureHighF,TemperatureAvgF,TemperatureLowF,DewpointHighF,DewpointAvgF,DewpointLowF,HumidityHigh,HumidityAvg,HumidityLow,PressureMaxIn,PressureMinIn,WindSpeedMaxMPH,WindSpeedAvgMPH,GustSpeedMaxMPH,PrecipitationSumIn
2013-2-1,46,36,28,40,32,26,94,86,67,30.50,30.23,17,5,17,0.01
2013-2-2,38,31,22,32,27,20,94,85,74,30.59,30.32,15,8,15,0.00
2013-2-3,42,33,25,32,27,20,88,79,62,30.34,30.16,15,3,15,0.00
2013-2-4,52,36,31,37,30,28,90,79,53,30.19,30.01,14,4,14,0.00
2013-2-5,58,38,31,39,32,26,92,78,44,30.02,29.81,20,6,20,0.02
2013-2-6,44,36,31,31,28,24,83,72,58,30.12,29.94,20,8,20,0.01
2013-2-7,40,32,28,32,27,24,94,83,66,30.08,29.95,16,5,16,0.01
2013-2-8,33,29,26,31,27,24,95,94,91,30.18,30.07,14,4,14,0.06
2013-2-9,36,28,23,31,26,21,100,91,80,30.25,30.10,13,2,13,0.00
2013-2-10,34,27,21,30,25,19,94,90,82,30.33,30.24,6,1,6,0.02
2013-2-11,40,28,20,30,23,17,93,84,64,30.34,30.24,10,4,10,0.00
2013-2-12,47,36,29,35,30,26,92,80,60,30.41,30.19,28,6,28,0.00
2013-2-13,43,38,31,35,32,28,87,79,65,30.39,30.19,29,7,29,0.00
2013-2-14,44,33,25,33,28,22,92,81,62,30.58,30.39,13,3,13,0.00
2013-2-15,53,36,26,35,30,23,91,78,48,30.61,30.30,12,3,12,0.00
2013-2-16,50,38,32,36,30,25,88,75,54,30.30,29.98,39,9,39,0.16
2013-2-17,38,32,25,29,26,22,90,78,67,30.19,30.00,22,6,22,0.01
2013-2-18,36,30,23,27,24,20,90,78,60,30.18,29.82,20,9,20,0.01
2013-2-19,38,30,28,33,27,24,94,89,73,29.93,29.74,14,3,14,0.02
2013-2-20,42,30,26,29,25,21,94,82,51,30.08,29.92,17,4,17,0.00
2013-2-21,33,28,23,30,24,18,95,85,71,30.12,30.04,18,5,18,0.04
2013-2-22,37,32,27,33,29,24,100,89,77,30.10,29.76,33,10,33,0.08
2013-2-23,37,30,25,29,23,18,92,77,63,30.31,29.80,33,10,33,0.00
2013-2-24,38,27,16,25,21,13,90,78,57,30.44,30.19,14,4,14,0.04
2013-2-25,36,31,24,29,24,18,99,76,65,30.21,30.03,35,13,35,0.04
2013-2-26,39,30,25,26,21,18,79,71,51,30.40,30.21,20,6,20,0.04
2013-2-27,43,34,26,27,22,17,72,59,46,30.38,30.26,30,8,30,0.00
2013-2-28,36,33,30,34,31,25,100,93,64,30.46,30.32,20,6,20,0.26